| time (UTC) | temp C | wind direction | speed KPH | gust KPH | rain 1hr cm | rain 24hr cm | rain mn cm | humidity % | barometer mb |
| 20260504050300 | 8 | 0 | 90.1 | 120.7 | 0.00 | 0.00 | 0.00 | 73 | 1012.6 |
| 20260504045300 | 8 | 0 | 90.1 | 120.7 | 0.00 | 0.00 | 0.00 | 73 | 1012.6 |
| 20260504044300 | 7 | 0 | 90.1 | 120.7 | 0.00 | 0.00 | 0.00 | 73 | 1012.4 |
| 20260504043300 | 7 | 0 | 90.1 | 120.7 | 0.00 | 0.00 | 0.00 | 73 | 1012.3 |
| 20260504042259 | 7 | 0 | 90.1 | 120.7 | 0.00 | 0.00 | 0.00 | 73 | 1012.2 |
| 20260504041259 | 7 | 0 | 90.1 | 120.7 | 0.00 | 0.00 | 0.00 | 73 | 1012.3 |
| 20260504040259 | 7 | 202 | 90.1 | 120.7 | 0.00 | 0.00 | 0.00 | 73 | 1012.4 |
| 20260504035259 | 7 | 202 | 90.1 | 120.7 | 0.00 | 0.00 | 0.00 | 73 | 1012.4 |
| 20260504034259 | 7 | 0 | 90.1 | 120.7 | 0.00 | 0.00 | 0.00 | 73 | 1012.3 |
| 20260504033259 | 7 | 0 | 90.1 | 120.7 | 0.00 | 0.00 | 0.00 | 73 | 1012.3 |
| 20260504032259 | 7 | 0 | 90.1 | 120.7 | 0.00 | 0.00 | 0.00 | 73 | 1012.3 |
| 20260504031259 | 7 | 0 | 90.1 | 120.7 | 0.00 | 0.00 | 0.00 | 73 | 1012.3 |
| 20260504030259 | 7 | 202 | 90.1 | 120.7 | 0.00 | 0.00 | 0.00 | 73 | 1012.3 |
| 20260504025259 | 7 | 0 | 90.1 | 120.7 | 0.00 | 0.00 | 0.00 | 72 | 1012.3 |
| 20260504024259 | 7 | 0 | 90.1 | 120.7 | 0.00 | 0.00 | 0.00 | 73 | 1012.2 |
| 20260504023258 | 7 | 202 | 90.1 | 120.7 | 0.00 | 0.00 | 0.00 | 72 | 1012.2 |
| 20260504022258 | 7 | 0 | 90.1 | 120.7 | 0.00 | 0.00 | 0.00 | 72 | 1012.2 |
| 20260504021258 | 7 | 0 | 90.1 | 120.7 | 0.00 | 0.00 | 0.00 | 72 | 1012.3 |
| 20260504020258 | 7 | 0 | 90.1 | 120.7 | 0.00 | 0.00 | 0.00 | 72 | 1012.2 |
| 20260504015258 | 7 | 0 | 90.1 | 120.7 | 0.00 | 0.00 | 0.00 | 72 | 1012.3 |
| 20260504014258 | 8 | 202 | 90.1 | 120.7 | 0.00 | 0.00 | 0.00 | 72 | 1012.3 |
| 20260504013258 | 8 | 0 | 90.1 | 120.7 | 0.00 | 0.00 | 0.00 | 72 | 1012.3 |
| 20260504012258 | 8 | 0 | 90.1 | 120.7 | 0.00 | 0.00 | 0.00 | 72 | 1012.3 |
| 20260504011258 | 8 | 0 | 90.1 | 120.7 | 0.00 | 0.00 | 0.00 | 72 | 1012.5 |
| 20260504010258 | 8 | 0 | 90.1 | 120.7 | 0.00 | 0.00 | 0.00 | 71 | 1012.4 |
| 20260504005258 | 8 | 0 | 90.1 | 120.7 | 0.00 | 0.00 | 0.00 | 71 | 1012.4 |
| 20260504004258 | 8 | 0 | 90.1 | 120.7 | 0.00 | 0.00 | 0.00 | 70 | 1012.5 |
| 20260504003257 | 8 | 0 | 90.1 | 120.7 | 0.00 | 0.00 | 0.00 | 70 | 1012.5 |
| 20260504002257 | 8 | 202 | 90.1 | 120.7 | 0.00 | 0.00 | 0.00 | 70 | 1012.5 |
| 20260504001257 | 9 | 0 | 90.1 | 120.7 | 0.00 | 0.00 | 0.00 | 69 | 1012.6 |
| 20260504000257 | 9 | 0 | 90.1 | 120.7 | 0.00 | 0.00 | 0.00 | 69 | 1012.7 |
| 20260503235257 | 9 | 0 | 90.1 | 120.7 | 0.00 | 0.00 | 0.00 | 69 | 1012.7 |
| 20260503234257 | 9 | 0 | 90.1 | 120.7 | 0.00 | 0.00 | 0.00 | 68 | 1012.6 |
| 20260503233257 | 10 | 0 | 90.1 | 120.7 | 0.00 | 0.00 | 0.00 | 68 | 1012.7 |
| 20260503232257 | 10 | 0 | 90.1 | 120.7 | 0.00 | 0.00 | 0.00 | 68 | 1012.7 |
| 20260503231257 | 10 | 0 | 90.1 | 120.7 | 0.00 | 0.00 | 0.00 | 67 | 1012.7 |
| 20260503230257 | 10 | 0 | 90.1 | 120.7 | 0.00 | 0.00 | 0.00 | 66 | 1012.6 |
| 20260503225257 | 10 | 0 | 90.1 | 120.7 | 0.00 | 0.00 | 0.00 | 66 | 1012.7 |
| 20260503224256 | 10 | 0 | 90.1 | 120.7 | 0.00 | 0.00 | 0.00 | 65 | 1012.7 |
| 20260503223256 | 10 | 0 | 90.1 | 120.7 | 0.00 | 0.00 | 0.00 | 64 | 1012.7 |
| 20260503222256 | 11 | 0 | 90.1 | 120.7 | 0.00 | 0.00 | 0.00 | 64 | 1012.8 |
| 20260503221256 | 11 | 0 | 90.1 | 120.7 | 0.00 | 0.00 | 0.00 | 63 | 1012.7 |
| 20260503220256 | 11 | 0 | 90.1 | 120.7 | 0.00 | 0.00 | 0.00 | 62 | 1012.8 |
| 20260503215256 | 11 | 0 | 90.1 | 120.7 | 0.00 | 0.00 | 0.00 | 61 | 1012.7 |
| 20260503214256 | 11 | 0 | 90.1 | 120.7 | 0.00 | 0.00 | 0.00 | 59 | 1012.8 |
| 20260503213256 | 12 | 0 | 90.1 | 120.7 | 0.00 | 0.00 | 0.00 | 59 | 1012.7 |
| 20260503212256 | 12 | 0 | 90.1 | 120.7 | 0.00 | 0.00 | 0.00 | 58 | 1012.6 |
| 20260503211256 | 12 | 0 | 90.1 | 120.7 | 0.00 | 0.00 | 0.00 | 57 | 1012.8 |
| 20260503210256 | 12 | 0 | 90.1 | 120.7 | 0.00 | 0.00 | 0.00 | 56 | 1012.7 |
| 20260503205256 | 13 | 0 | 90.1 | 120.7 | 0.00 | 0.00 | 0.00 | 56 | 1012.6 |
| 20260503204255 | 13 | 0 | 90.1 | 120.7 | 0.00 | 0.00 | 0.00 | 55 | 1012.7 |
| 20260503203255 | 13 | 0 | 90.1 | 120.7 | 0.00 | 0.00 | 0.00 | 55 | 1012.6 |
| 20260503202255 | 13 | 0 | 90.1 | 120.7 | 0.00 | 0.00 | 0.00 | 54 | 1012.6 |
| 20260503201255 | 14 | 0 | 90.1 | 120.7 | 0.00 | 0.00 | 0.00 | 53 | 1012.6 |
| 20260503200255 | 15 | 0 | 90.1 | 120.7 | 0.00 | 0.00 | 0.00 | 52 | 1012.6 |
| 20260503195255 | 15 | 0 | 90.1 | 120.7 | 0.00 | 0.00 | 0.00 | 51 | 1012.7 |
| 20260503194255 | 15 | 0 | 90.1 | 120.7 | 0.00 | 0.00 | 0.00 | 51 | 1012.8 |
| 20260503193255 | 16 | 0 | 90.1 | 120.7 | 0.00 | 0.00 | 0.00 | 50 | 1012.7 |
| 20260503192255 | 16 | 0 | 90.1 | 120.7 | 0.00 | 0.00 | 0.00 | 48 | 1012.6 |
| 20260503191255 | 16 | 0 | 90.1 | 120.7 | 0.00 | 0.00 | 0.00 | 48 | 1012.6 |
| 20260503190255 | 17 | 0 | 90.1 | 120.7 | 0.00 | 0.00 | 0.00 | 47 | 1012.6 |
| 20260503185255 | 17 | 0 | 90.1 | 120.7 | 0.00 | 0.00 | 0.00 | 46 | 1012.6 |
| 20260503184254 | 18 | 202 | 90.1 | 120.7 | 0.00 | 0.00 | 0.00 | 44 | 1012.4 |
| 20260503183254 | 18 | 0 | 90.1 | 120.7 | 0.00 | 0.00 | 0.00 | 43 | 1012.4 |
| 20260503182254 | 20 | 0 | 90.1 | 120.7 | 0.00 | 0.00 | 0.00 | 42 | 1012.3 |
| 20260503181254 | 20 | 0 | 90.1 | 120.7 | 0.00 | 0.00 | 0.00 | 41 | 1012.2 |
| 20260503180254 | 20 | 202 | 90.1 | 120.7 | 0.00 | 0.00 | 0.00 | 39 | 1012.3 |
| 20260503175254 | 21 | 202 | 90.1 | 120.7 | 0.00 | 0.00 | 0.00 | 38 | 1012.2 |
| 20260503174254 | 21 | 0 | 90.1 | 120.7 | 0.00 | 0.00 | 0.00 | 36 | 1012.1 |
| 20260503173254 | 22 | 0 | 90.1 | 120.7 | 0.00 | 0.00 | 0.00 | 35 | 1012.2 |
| 20260503172254 | 22 | 0 | 90.1 | 120.7 | 0.00 | 0.00 | 0.00 | 34 | 1012.2 |
| 20260503171254 | 23 | 0 | 90.1 | 120.7 | 0.00 | 0.00 | 0.00 | 34 | 1012.2 |
| 20260503170254 | 23 | 180 | 90.1 | 120.7 | 0.00 | 0.00 | 0.00 | 33 | 1012.0 |
| 20260503150252 | 26 | 0 | 90.1 | 120.7 | 0.00 | 0.00 | 0.00 | 31 | 1012.7 |
| 20260503140252 | 27 | 0 | 90.1 | 120.7 | 0.00 | 0.00 | 0.00 | 29 | 1013.4 |
| 20260503131252 | 26 | 0 | 90.1 | 120.7 | 0.00 | 0.00 | 0.00 | 30 | 1014.0 |
| 20260503130251 | 26 | 0 | 90.1 | 120.7 | 0.00 | 0.00 | 0.00 | 30 | 1014.2 |
| 20260503110250 | 23 | 0 | 90.1 | 120.7 | 0.00 | 0.05 | 0.00 | 34 | 1015.4 |
| 20260503100250 | 23 | 0 | 90.1 | 120.7 | 0.00 | 0.05 | 0.00 | 37 | 1016.1 |
| 20260503090249 | 22 | 0 | 90.1 | 120.7 | 0.00 | 0.05 | 0.00 | 40 | 1016.7 |
| 20260503081249 | 20 | 45 | 90.1 | 120.7 | 0.00 | 0.05 | 0.00 | 47 | 1016.9 |
| 20260503080249 | 20 | 0 | 90.1 | 120.7 | 0.00 | 0.05 | 0.00 | 49 | 1016.7 |
| 20260503072249 | 16 | 0 | 90.1 | 120.7 | 0.00 | 0.05 | 0.00 | 58 | 1016.9 |
| 20260503071248 | 15 | 0 | 90.1 | 120.7 | 0.00 | 0.05 | 0.00 | 58 | 1017.0 |
| 20260503070248 | 15 | 0 | 90.1 | 120.7 | 0.00 | 0.05 | 0.00 | 59 | 1017.0 |